Glen Burnie, Maryland
Current Conditions -  °F | °C
As of 5:54 AM on Monday 22 Dec 2014 (Local Time) from KBWI Reporting Station
Overcast Overcast  
Wind Chill: 29°   Ceiling: 4400
Heat Index: 29°   Visibility: 8mi
Dew Point: 23°   Wind: 3mph
Humidity: 78%   Direction: 30°NNE
Pressure: 30.28"   Gusts: NA
Location:  39.16°N, 76.62°W
Report Text: KBWI 221054Z 03003KT 8SM BKN044 OVC250 M02/M05 A3028 RMK AO2 SLP255 T10171050
Loading
Personal Weather Stations






























Interactive Weather Map New forecast layout! Learn more

10-Day Weather Forecast

Advertisements
Track Severe Weather on mobile